Terminal Aerodrome Forecast
Issued by NWS Grand Forks, ND

Home | Current Version | Previous Version | Graphics & Text | Print | Product List | Glossary On
Versions: 1 2 3 4 5 6 7 8 9 10 11 12 13 14 15 16
000
FTUS43 KFGF 010200 AAA
TAFFAR
TAF AMD
KFAR 010224Z 0102/0124 29016KT P6SM OVC035
      TEMPO 0102/0103 -SN BKN029
     FM010300 29012KT P6SM SCT100
     FM011200 21007KT P6SM BKN080
     FM011800 30012KT P6SM BKN050=

USA.gov is the U.S. government's official web portal to all federal, state and local government web resources and services.